N10 weather

Public forecast

Using degrees Fahrenheit for public forecast. Weather courtesy of forecast.io.

Closest aviation weather report (METAR) to Perkiomen Valley Airport

Closest report is Heritage Field, 6.2 nm (11.4 km) WNW. Retrieved 2020/08/15 06:54 UTC (15 minutes ago):

KPTW 150654Z AUTO 00000KT 9SM CLR 19/18 A3002 RMK AO2 SLP159 T01890178

Closest aviation forecast (TAF) to Perkiomen Valley Airport

Closest forecast is Northeast Philadelphia Airport, 20.6 nm (38.2 km) ESE. Retrieved 2020/08/15 06:24 UTC (45 minutes ago):

TAF KPNE 150521Z 1506/1606 VRB03KT P6SM BKN250 FM151200 06006KT P6SM BKN200 FM151800 09008G15KT P6SM BKN150 FM152300 11007KT P6SM OVC100 FM160300 07004KT P6SM VCSH OVC040